sensor_id;sensor_type;location;lat;lon;timestamp;pressure;altitude;pressure_sealevel;temperature;humidity
70833;BME280;71099;59.528;17.886;2024-02-23T00:01:47;98478.84;;;3.75;98.75
70833;BME280;71099;59.528;17.886;2024-02-23T00:04:12;98474.41;;;3.77;98.67
70833;BME280;71099;59.528;17.886;2024-02-23T00:06:38;98469.13;;;3.79;99.73
70833;BME280;71099;59.528;17.886;2024-02-23T00:09:03;98470.59;;;3.81;99.58
70833;BME280;71099;59.528;17.886;2024-02-23T00:11:28;98461.31;;;3.80;99.46
70833;BME280;71099;59.528;17.886;2024-02-23T00:13:54;98462.44;;;3.78;98.93
70833;BME280;71099;59.528;17.886;2024-02-23T00:16:19;98451.56;;;3.76;99.00
70833;BME280;71099;59.528;17.886;2024-02-23T00:18:45;98449.19;;;3.82;99.55
70833;BME280;71099;59.528;17.886;2024-02-23T00:21:11;98451.44;;;3.77;99.16
70833;BME280;71099;59.528;17.886;2024-02-23T00:23:36;98440.91;;;3.80;99.56
70833;BME280;71099;59.528;17.886;2024-02-23T00:26:02;98439.97;;;3.81;99.83
70833;BME280;71099;59.528;17.886;2024-02-23T00:28:27;98431.00;;;3.69;99.15
70833;BME280;71099;59.528;17.886;2024-02-23T00:30:53;98426.53;;;3.71;99.18
70833;BME280;71099;59.528;17.886;2024-02-23T00:33:18;98422.19;;;3.64;99.39
70833;BME280;71099;59.528;17.886;2024-02-23T00:35:44;98414.38;;;3.57;100.00
70833;BME280;71099;59.528;17.886;2024-02-23T00:38:09;98412.13;;;3.54;100.00
70833;BME280;71099;59.528;17.886;2024-02-23T00:40:34;98418.34;;;3.60;100.00
70833;BME280;71099;59.528;17.886;2024-02-23T00:43:00;98406.25;;;3.62;100.00
70833;BME280;71099;59.528;17.886;2024-02-23T00:45:26;98407.66;;;3.56;100.00
70833;BME280;71099;59.528;17.886;2024-02-23T00:47:51;98402.56;;;3.56;100.00
70833;BME280;71099;59.528;17.886;2024-02-23T00:50:17;98403.06;;;3.60;100.00
70833;BME280;71099;59.528;17.886;2024-02-23T00:52:43;98389.66;;;3.58;100.00
70833;BME280;71099;59.528;17.886;2024-02-23T00:55:08;98403.22;;;3.58;100.00
70833;BME280;71099;59.528;17.886;2024-02-23T00:57:34;98399.38;;;3.54;100.00
70833;BME280;71099;59.528;17.886;2024-02-23T01:00:01;98386.81;;;3.61;100.00
70833;BME280;71099;59.528;17.886;2024-02-23T01:02:28;98377.09;;;3.64;100.00
70833;BME280;71099;59.528;17.886;2024-02-23T01:04:53;98381.06;;;3.59;100.00
70833;BME280;71099;59.528;17.886;2024-02-23T01:07:24;98373.25;;;3.60;100.00
70833;BME280;71099;59.528;17.886;2024-02-23T01:09:49;98355.69;;;3.49;100.00
70833;BME280;71099;59.528;17.886;2024-02-23T01:12:15;98365.28;;;3.55;100.00
70833;BME280;71099;59.528;17.886;2024-02-23T01:14:40;98355.88;;;3.56;100.00
70833;BME280;71099;59.528;17.886;2024-02-23T01:17:06;98350.63;;;3.57;100.00
70833;BME280;71099;59.528;17.886;2024-02-23T01:19:31;98337.06;;;3.57;100.00
70833;BME280;71099;59.528;17.886;2024-02-23T01:21:57;98330.38;;;3.64;100.00
70833;BME280;71099;59.528;17.886;2024-02-23T01:24:28;98316.19;;;3.61;100.00
70833;BME280;71099;59.528;17.886;2024-02-23T01:26:55;98305.38;;;3.59;100.00
70833;BME280;71099;59.528;17.886;2024-02-23T01:29:23;98298.19;;;3.55;100.00
70833;BME280;71099;59.528;17.886;2024-02-23T01:31:49;98302.47;;;3.54;100.00
70833;BME280;71099;59.528;17.886;2024-02-23T01:34:14;98297.03;;;3.49;100.00
70833;BME280;71099;59.528;17.886;2024-02-23T01:36:40;98300.41;;;3.58;100.00
70833;BME280;71099;59.528;17.886;2024-02-23T01:39:05;98280.81;;;3.58;100.00
70833;BME280;71099;59.528;17.886;2024-02-23T01:41:31;98292.59;;;3.51;100.00
70833;BME280;71099;59.528;17.886;2024-02-23T01:43:57;98289.88;;;3.53;100.00
70833;BME280;71099;59.528;17.886;2024-02-23T01:46:23;98288.75;;;3.47;100.00
70833;BME280;71099;59.528;17.886;2024-02-23T01:48:48;98287.81;;;3.48;100.00
70833;BME280;71099;59.528;17.886;2024-02-23T01:51:14;98285.75;;;3.52;100.00
70833;BME280;71099;59.528;17.886;2024-02-23T01:53:40;98279.19;;;3.49;100.00
70833;BME280;71099;59.528;17.886;2024-02-23T01:56:06;98265.03;;;3.55;100.00
70833;BME280;71099;59.528;17.886;2024-02-23T01:58:33;98256.91;;;3.59;100.00
70833;BME280;71099;59.528;17.886;2024-02-23T02:01:00;98259.16;;;3.62;100.00
70833;BME280;71099;59.528;17.886;2024-02-23T02:03:25;98247.97;;;3.63;100.00
70833;BME280;71099;59.528;17.886;2024-02-23T02:05:54;98243.19;;;3.68;100.00
70833;BME280;71099;59.528;17.886;2024-02-23T02:08:22;98235.53;;;3.60;100.00
70833;BME280;71099;59.528;17.886;2024-02-23T02:10:48;98240.97;;;3.65;100.00
70833;BME280;71099;59.528;17.886;2024-02-23T02:13:14;98241.13;;;3.64;100.00
70833;BME280;71099;59.528;17.886;2024-02-23T02:15:40;98227.41;;;3.65;100.00
70833;BME280;71099;59.528;17.886;2024-02-23T02:18:05;98225.00;;;3.63;100.00
70833;BME280;71099;59.528;17.886;2024-02-23T02:20:32;98219.91;;;3.71;100.00
70833;BME280;71099;59.528;17.886;2024-02-23T02:22:59;98212.44;;;3.78;100.00
70833;BME280;71099;59.528;17.886;2024-02-23T02:25:24;98216.09;;;3.75;100.00
70833;BME280;71099;59.528;17.886;2024-02-23T02:27:50;98214.03;;;3.63;100.00
70833;BME280;71099;59.528;17.886;2024-02-23T02:30:15;98213.53;;;3.67;100.00
70833;BME280;71099;59.528;17.886;2024-02-23T02:32:41;98215.47;;;3.73;100.00
70833;BME280;71099;59.528;17.886;2024-02-23T02:35:07;98213.06;;;3.72;100.00
70833;BME280;71099;59.528;17.886;2024-02-23T02:37:33;98207.16;;;3.71;100.00
70833;BME280;71099;59.528;17.886;2024-02-23T02:39:58;98195.53;;;3.77;100.00
70833;BME280;71099;59.528;17.886;2024-02-23T02:42:24;98194.09;;;3.82;100.00
70833;BME280;71099;59.528;17.886;2024-02-23T02:44:49;98189.50;;;3.78;100.00
70833;BME280;71099;59.528;17.886;2024-02-23T02:47:15;98188.97;;;3.74;100.00
70833;BME280;71099;59.528;17.886;2024-02-23T02:49:40;98179.09;;;3.79;100.00
70833;BME280;71099;59.528;17.886;2024-02-23T02:52:06;98163.81;;;3.79;100.00
70833;BME280;71099;59.528;17.886;2024-02-23T02:54:33;98171.63;;;3.78;100.00
70833;BME280;71099;59.528;17.886;2024-02-23T02:56:59;98166.03;;;3.74;100.00
70833;BME280;71099;59.528;17.886;2024-02-23T02:59:24;98154.88;;;3.75;100.00
70833;BME280;71099;59.528;17.886;2024-02-23T03:01:49;98151.72;;;3.65;100.00
70833;BME280;71099;59.528;17.886;2024-02-23T03:04:15;98153.31;;;3.66;100.00
70833;BME280;71099;59.528;17.886;2024-02-23T03:06:41;98154.25;;;3.65;100.00
70833;BME280;71099;59.528;17.886;2024-02-23T03:09:06;98144.72;;;3.59;100.00
70833;BME280;71099;59.528;17.886;2024-02-23T03:11:32;98150.56;;;3.68;100.00
70833;BME280;71099;59.528;17.886;2024-02-23T03:13:58;98140.53;;;3.74;100.00
70833;BME280;71099;59.528;17.886;2024-02-23T03:16:23;98132.25;;;3.72;100.00
70833;BME280;71099;59.528;17.886;2024-02-23T03:18:51;98122.03;;;3.72;100.00
70833;BME280;71099;59.528;17.886;2024-02-23T03:21:16;98131.59;;;3.78;100.00
70833;BME280;71099;59.528;17.886;2024-02-23T03:23:42;98117.09;;;3.79;100.00
70833;BME280;71099;59.528;17.886;2024-02-23T03:26:07;98100.38;;;3.76;100.00
70833;BME280;71099;59.528;17.886;2024-02-23T03:28:33;98100.03;;;3.79;100.00
70833;BME280;71099;59.528;17.886;2024-02-23T03:31:02;98090.47;;;3.81;100.00
70833;BME280;71099;59.528;17.886;2024-02-23T03:33:28;98085.84;;;3.85;100.00
70833;BME280;71099;59.528;17.886;2024-02-23T03:35:53;98075.94;;;3.82;100.00
70833;BME280;71099;59.528;17.886;2024-02-23T03:38:18;98075.78;;;3.83;100.00
70833;BME280;71099;59.528;17.886;2024-02-23T03:40:44;98083.63;;;3.74;100.00
70833;BME280;71099;59.528;17.886;2024-02-23T03:43:09;98070.84;;;3.82;100.00
70833;BME280;71099;59.528;17.886;2024-02-23T03:45:35;98065.44;;;3.85;100.00
70833;BME280;71099;59.528;17.886;2024-02-23T03:48:03;98063.50;;;3.87;100.00
70833;BME280;71099;59.528;17.886;2024-02-23T03:50:29;98062.69;;;3.86;100.00
70833;BME280;71099;59.528;17.886;2024-02-23T03:52:55;98056.00;;;3.85;100.00
70833;BME280;71099;59.528;17.886;2024-02-23T03:55:20;98061.09;;;3.85;100.00
70833;BME280;71099;59.528;17.886;2024-02-23T03:57:47;98065.72;;;3.90;100.00
70833;BME280;71099;59.528;17.886;2024-02-23T04:00:13;98057.44;;;3.88;100.00
70833;BME280;71099;59.528;17.886;2024-02-23T04:02:38;98059.53;;;3.84;100.00
70833;BME280;71099;59.528;17.886;2024-02-23T04:05:04;98057.78;;;3.85;100.00
70833;BME280;71099;59.528;17.886;2024-02-23T04:07:30;98056.00;;;3.85;100.00
70833;BME280;71099;59.528;17.886;2024-02-23T04:09:56;98054.09;;;3.87;100.00
70833;BME280;71099;59.528;17.886;2024-02-23T04:12:21;98046.44;;;3.87;100.00
70833;BME280;71099;59.528;17.886;2024-02-23T04:14:47;98040.41;;;3.80;100.00
70833;BME280;71099;59.528;17.886;2024-02-23T04:17:13;98046.94;;;3.83;100.00
70833;BME280;71099;59.528;17.886;2024-02-23T04:19:40;98031.47;;;3.84;100.00
70833;BME280;71099;59.528;17.886;2024-02-23T04:22:06;98026.97;;;3.86;100.00
70833;BME280;71099;59.528;17.886;2024-02-23T04:24:36;98027.00;;;3.78;100.00
70833;BME280;71099;59.528;17.886;2024-02-23T04:27:01;98044.25;;;3.76;100.00
70833;BME280;71099;59.528;17.886;2024-02-23T04:29:27;98022.22;;;3.83;100.00
70833;BME280;71099;59.528;17.886;2024-02-23T04:31:53;98025.91;;;3.81;100.00
70833;BME280;71099;59.528;17.886;2024-02-23T04:34:18;98019.06;;;3.81;100.00
70833;BME280;71099;59.528;17.886;2024-02-23T04:36:43;98020.81;;;3.73;100.00
70833;BME280;71099;59.528;17.886;2024-02-23T04:39:09;98011.09;;;3.76;100.00
70833;BME280;71099;59.528;17.886;2024-02-23T04:41:34;98006.28;;;3.81;100.00
70833;BME280;71099;59.528;17.886;2024-02-23T04:44:00;97998.47;;;3.83;100.00
70833;BME280;71099;59.528;17.886;2024-02-23T04:46:26;97994.47;;;3.88;100.00
70833;BME280;71099;59.528;17.886;2024-02-23T04:48:52;97989.97;;;3.90;100.00
70833;BME280;71099;59.528;17.886;2024-02-23T04:51:17;97991.56;;;3.91;100.00
70833;BME280;71099;59.528;17.886;2024-02-23T04:53:43;97985.03;;;3.89;100.00
70833;BME280;71099;59.528;17.886;2024-02-23T04:56:09;97985.22;;;3.87;100.00
70833;BME280;71099;59.528;17.886;2024-02-23T04:58:34;97982.31;;;3.90;100.00
70833;BME280;71099;59.528;17.886;2024-02-23T05:01:00;97974.50;;;3.92;100.00
70833;BME280;71099;59.528;17.886;2024-02-23T05:03:25;97967.34;;;3.87;100.00
70833;BME280;71099;59.528;17.886;2024-02-23T05:05:51;97968.94;;;3.88;100.00
70833;BME280;71099;59.528;17.886;2024-02-23T05:08:21;97969.91;;;3.87;100.00
70833;BME280;71099;59.528;17.886;2024-02-23T05:10:49;97968.16;;;3.88;100.00
70833;BME280;71099;59.528;17.886;2024-02-23T05:13:15;97954.94;;;3.84;100.00
70833;BME280;71099;59.528;17.886;2024-02-23T05:15:40;97960.31;;;3.89;100.00
70833;BME280;71099;59.528;17.886;2024-02-23T05:18:06;97956.69;;;3.84;100.00
70833;BME280;71099;59.528;17.886;2024-02-23T05:20:31;97955.09;;;3.83;100.00
70833;BME280;71099;59.528;17.886;2024-02-23T05:22:57;97948.53;;;3.88;100.00
70833;BME280;71099;59.528;17.886;2024-02-23T05:25:22;97944.50;;;3.94;100.00
70833;BME280;71099;59.528;17.886;2024-02-23T05:27:48;97935.09;;;3.94;100.00
70833;BME280;71099;59.528;17.886;2024-02-23T05:30:13;97931.06;;;4.00;100.00
70833;BME280;71099;59.528;17.886;2024-02-23T05:32:39;97917.25;;;3.94;100.00
70833;BME280;71099;59.528;17.886;2024-02-23T05:35:05;97915.31;;;3.97;100.00
70833;BME280;71099;59.528;17.886;2024-02-23T05:37:30;97909.44;;;3.96;100.00
70833;BME280;71099;59.528;17.886;2024-02-23T05:39:56;97912.44;;;4.00;100.00
70833;BME280;71099;59.528;17.886;2024-02-23T05:42:21;97904.78;;;4.00;100.00
70833;BME280;71099;59.528;17.886;2024-02-23T05:44:47;97887.19;;;4.05;100.00
70833;BME280;71099;59.528;17.886;2024-02-23T05:47:14;97888.56;;;3.92;100.00
70833;BME280;71099;59.528;17.886;2024-02-23T05:49:39;97889.19;;;3.94;100.00
70833;BME280;71099;59.528;17.886;2024-02-23T05:52:05;97888.56;;;3.92;100.00
70833;BME280;71099;59.528;17.886;2024-02-23T05:54:30;97880.38;;;3.97;100.00
70833;BME280;71099;59.528;17.886;2024-02-23T05:56:56;97890.78;;;3.96;100.00
70833;BME280;71099;59.528;17.886;2024-02-23T05:59:21;97879.31;;;3.91;100.00
70833;BME280;71099;59.528;17.886;2024-02-23T06:01:47;97864.34;;;3.88;100.00
70833;BME280;71099;59.528;17.886;2024-02-23T06:04:12;97868.03;;;3.86;100.00
70833;BME280;71099;59.528;17.886;2024-02-23T06:06:41;97868.66;;;3.88;100.00
70833;BME280;71099;59.528;17.886;2024-02-23T06:09:07;97864.06;;;3.83;100.00
70833;BME280;71099;59.528;17.886;2024-02-23T06:11:33;97867.88;;;3.87;100.00
70833;BME280;71099;59.528;17.886;2024-02-23T06:13:59;97869.28;;;3.90;100.00
70833;BME280;71099;59.528;17.886;2024-02-23T06:16:24;97856.34;;;3.91;100.00
70833;BME280;71099;59.528;17.886;2024-02-23T06:18:52;97860.97;;;3.96;100.00
70833;BME280;71099;59.528;17.886;2024-02-23T06:21:18;97869.06;;;4.00;100.00
70833;BME280;71099;59.528;17.886;2024-02-23T06:23:44;97863.97;;;4.00;100.00
70833;BME280;71099;59.528;17.886;2024-02-23T06:26:10;97867.47;;;3.99;100.00
70833;BME280;71099;59.528;17.886;2024-02-23T06:28:36;97866.56;;;3.91;100.00
70833;BME280;71099;59.528;17.886;2024-02-23T06:31:05;97863.06;;;3.92;100.00
70833;BME280;71099;59.528;17.886;2024-02-23T06:33:31;97867.16;;;3.93;100.00
70833;BME280;71099;59.528;17.886;2024-02-23T06:35:56;97858.66;;;4.01;100.00
70833;BME280;71099;59.528;17.886;2024-02-23T06:38:22;97847.06;;;3.99;100.00
70833;BME280;71099;59.528;17.886;2024-02-23T06:40:47;97852.78;;;4.01;100.00
70833;BME280;71099;59.528;17.886;2024-02-23T06:43:13;97848.91;;;4.05;100.00
70833;BME280;71099;59.528;17.886;2024-02-23T06:45:38;97849.56;;;4.07;100.00
70833;BME280;71099;59.528;17.886;2024-02-23T06:48:04;97854.66;;;4.07;100.00
70833;BME280;71099;59.528;17.886;2024-02-23T06:50:29;97856.56;;;4.05;100.00
70833;BME280;71099;59.528;17.886;2024-02-23T06:52:55;97865.03;;;4.05;100.00
70833;BME280;71099;59.528;17.886;2024-02-23T06:55:20;97853.06;;;4.06;100.00
70833;BME280;71099;59.528;17.886;2024-02-23T06:57:46;97849.09;;;4.03;100.00
70833;BME280;71099;59.528;17.886;2024-02-23T07:00:12;97826.59;;;4.07;100.00
70833;BME280;71099;59.528;17.886;2024-02-23T07:02:38;97816.69;;;4.04;100.00
70833;BME280;71099;59.528;17.886;2024-02-23T07:05:04;97818.25;;;4.13;100.00
70833;BME280;71099;59.528;17.886;2024-02-23T07:07:30;97821.59;;;4.13;100.00
70833;BME280;71099;59.528;17.886;2024-02-23T07:09:57;97816.63;;;4.12;100.00
70833;BME280;71099;59.528;17.886;2024-02-23T07:12:22;97813.41;;;4.18;100.00
70833;BME280;71099;59.528;17.886;2024-02-23T07:14:48;97798.88;;;4.18;100.00
70833;BME280;71099;59.528;17.886;2024-02-23T07:17:17;97781.81;;;4.19;100.00
70833;BME280;71099;59.528;17.886;2024-02-23T07:19:42;97780.25;;;4.18;100.00
70833;BME280;71099;59.528;17.886;2024-02-23T07:22:08;97779.25;;;4.19;100.00
70833;BME280;71099;59.528;17.886;2024-02-23T07:24:33;97775.75;;;4.20;100.00
70833;BME280;71099;59.528;17.886;2024-02-23T07:26:59;97776.53;;;4.20;100.00
70833;BME280;71099;59.528;17.886;2024-02-23T07:29:24;97766.94;;;4.22;100.00
70833;BME280;71099;59.528;17.886;2024-02-23T07:31:50;97756.72;;;4.22;100.00
70833;BME280;71099;59.528;17.886;2024-02-23T07:34:15;97767.72;;;4.23;100.00
70833;BME280;71099;59.528;17.886;2024-02-23T07:36:40;97788.16;;;4.23;100.00
70833;BME280;71099;59.528;17.886;2024-02-23T07:39:06;97785.94;;;4.20;100.00
70833;BME280;71099;59.528;17.886;2024-02-23T07:41:32;97787.19;;;4.24;100.00
70833;BME280;71099;59.528;17.886;2024-02-23T07:43:57;97774.34;;;4.17;100.00
70833;BME280;71099;59.528;17.886;2024-02-23T07:46:23;97782.50;;;4.13;100.00
70833;BME280;71099;59.528;17.886;2024-02-23T07:48:48;97777.91;;;4.08;100.00
70833;BME280;71099;59.528;17.886;2024-02-23T07:51:14;97779.00;;;4.14;100.00
70833;BME280;71099;59.528;17.886;2024-02-23T07:53:39;97781.00;;;4.18;100.00
70833;BME280;71099;59.528;17.886;2024-02-23T07:56:07;97779.34;;;4.11;100.00
70833;BME280;71099;59.528;17.886;2024-02-23T07:58:33;97781.56;;;4.14;100.00
70833;BME280;71099;59.528;17.886;2024-02-23T08:00:59;97776.09;;;4.17;100.00
70833;BME280;71099;59.528;17.886;2024-02-23T08:03:24;97775.91;;;4.18;100.00
70833;BME280;71099;59.528;17.886;2024-02-23T08:05:49;97775.47;;;4.15;100.00
70833;BME280;71099;59.528;17.886;2024-02-23T08:08:15;97766.91;;;4.08;100.00
70833;BME280;71099;59.528;17.886;2024-02-23T08:10:40;97765.94;;;4.09;100.00
70833;BME280;71099;59.528;17.886;2024-02-23T08:13:06;97766.25;;;4.14;100.00
70833;BME280;71099;59.528;17.886;2024-02-23T08:15:31;97768.78;;;4.14;100.00
70833;BME280;71099;59.528;17.886;2024-02-23T08:17:56;97753.81;;;4.11;100.00
70833;BME280;71099;59.528;17.886;2024-02-23T08:20:22;97762.09;;;4.13;100.00
70833;BME280;71099;59.528;17.886;2024-02-23T08:22:48;97773.59;;;4.09;100.00
70833;BME280;71099;59.528;17.886;2024-02-23T08:25:13;97771.75;;;4.03;100.00
70833;BME280;71099;59.528;17.886;2024-02-23T08:27:40;97773.97;;;4.06;100.00
70833;BME280;71099;59.528;17.886;2024-02-23T08:30:06;97793.06;;;4.10;100.00
70833;BME280;71099;59.528;17.886;2024-02-23T08:32:32;97784.91;;;4.14;100.00
70833;BME280;71099;59.528;17.886;2024-02-23T08:34:57;97799.41;;;4.14;100.00
70833;BME280;71099;59.528;17.886;2024-02-23T08:37:27;97805.81;;;4.10;100.00
70833;BME280;71099;59.528;17.886;2024-02-23T08:39:53;97811.19;;;4.15;100.00
70833;BME280;71099;59.528;17.886;2024-02-23T08:42:18;97799.75;;;4.11;100.00
70833;BME280;71099;59.528;17.886;2024-02-23T08:44:44;97801.16;;;4.13;100.00
70833;BME280;71099;59.528;17.886;2024-02-23T08:47:09;97791.72;;;3.99;100.00
70833;BME280;71099;59.528;17.886;2024-02-23T08:49:35;97791.47;;;4.09;100.00
70833;BME280;71099;59.528;17.886;2024-02-23T08:52:00;97777.41;;;4.13;100.00
70833;BME280;71099;59.528;17.886;2024-02-23T08:54:25;97782.16;;;4.16;100.00
70833;BME280;71099;59.528;17.886;2024-02-23T08:56:51;97780.69;;;4.21;100.00
70833;BME280;71099;59.528;17.886;2024-02-23T08:59:16;97793.59;;;4.20;100.00
70833;BME280;71099;59.528;17.886;2024-02-23T09:01:42;97799.94;;;4.24;100.00
70833;BME280;71099;59.528;17.886;2024-02-23T09:04:09;97796.78;;;4.22;100.00
70833;BME280;71099;59.528;17.886;2024-02-23T09:06:35;97789.75;;;4.24;100.00
70833;BME280;71099;59.528;17.886;2024-02-23T09:09:00;97805.06;;;4.24;100.00
70833;BME280;71099;59.528;17.886;2024-02-23T09:11:25;97785.88;;;4.28;100.00
70833;BME280;71099;59.528;17.886;2024-02-23T09:13:51;97794.25;;;4.22;100.00
70833;BME280;71099;59.528;17.886;2024-02-23T09:16:16;97795.75;;;4.31;100.00
70833;BME280;71099;59.528;17.886;2024-02-23T09:18:42;97805.78;;;4.32;100.00
70833;BME280;71099;59.528;17.886;2024-02-23T09:21:08;97820.75;;;4.35;100.00
70833;BME280;71099;59.528;17.886;2024-02-23T09:23:33;97814.69;;;4.36;100.00
70833;BME280;71099;59.528;17.886;2024-02-23T09:25:59;97816.69;;;4.41;100.00
70833;BME280;71099;59.528;17.886;2024-02-23T09:28:25;97836.00;;;4.43;100.00
70833;BME280;71099;59.528;17.886;2024-02-23T09:30:50;97844.72;;;4.49;100.00
70833;BME280;71099;59.528;17.886;2024-02-23T09:33:15;97845.50;;;4.50;100.00
70833;BME280;71099;59.528;17.886;2024-02-23T09:35:41;97856.88;;;4.47;100.00
70833;BME280;71099;59.528;17.886;2024-02-23T09:38:06;97866.75;;;4.50;100.00
70833;BME280;71099;59.528;17.886;2024-02-23T09:40:32;97878.56;;;4.51;100.00
70833;BME280;71099;59.528;17.886;2024-02-23T09:42:58;97879.09;;;4.61;100.00
70833;BME280;71099;59.528;17.886;2024-02-23T09:45:25;97890.25;;;4.60;100.00
70833;BME280;71099;59.528;17.886;2024-02-23T09:47:53;97880.06;;;4.60;100.00
70833;BME280;71099;59.528;17.886;2024-02-23T09:50:22;97888.50;;;4.61;100.00
70833;BME280;71099;59.528;17.886;2024-02-23T09:52:48;97902.34;;;4.66;100.00
70833;BME280;71099;59.528;17.886;2024-02-23T09:55:18;97903.22;;;4.73;100.00
70833;BME280;71099;59.528;17.886;2024-02-23T09:57:47;97905.72;;;4.81;100.00
70833;BME280;71099;59.528;17.886;2024-02-23T10:00:15;97897.09;;;4.82;100.00
70833;BME280;71099;59.528;17.886;2024-02-23T10:02:42;97913.13;;;4.91;100.00
70833;BME280;71099;59.528;17.886;2024-02-23T10:05:10;97917.72;;;4.96;100.00
70833;BME280;71099;59.528;17.886;2024-02-23T10:07:36;97926.09;;;5.04;100.00
70833;BME280;71099;59.528;17.886;2024-02-23T10:10:01;97935.53;;;5.04;100.00
70833;BME280;71099;59.528;17.886;2024-02-23T10:12:27;97931.66;;;5.08;100.00
70833;BME280;71099;59.528;17.886;2024-02-23T10:14:53;97944.34;;;5.16;100.00
70833;BME280;71099;59.528;17.886;2024-02-23T10:17:20;97953.72;;;5.23;100.00
70833;BME280;71099;59.528;17.886;2024-02-23T10:19:48;97951.59;;;5.27;100.00
70833;BME280;71099;59.528;17.886;2024-02-23T10:22:14;97970.38;;;5.34;100.00
70833;BME280;71099;59.528;17.886;2024-02-23T10:24:42;97973.81;;;5.41;100.00
70833;BME280;71099;59.528;17.886;2024-02-23T10:27:07;97970.81;;;5.52;100.00
70833;BME280;71099;59.528;17.886;2024-02-23T10:29:33;97966.56;;;5.59;100.00
70833;BME280;71099;59.528;17.886;2024-02-23T10:31:58;97973.78;;;5.70;100.00
70833;BME280;71099;59.528;17.886;2024-02-23T10:34:26;97982.72;;;5.74;100.00
70833;BME280;71099;59.528;17.886;2024-02-23T10:36:52;97992.84;;;5.82;100.00
70833;BME280;71099;59.528;17.886;2024-02-23T10:39:19;97991.34;;;5.88;100.00
70833;BME280;71099;59.528;17.886;2024-02-23T10:41:47;97992.16;;;5.88;99.50
70833;BME280;71099;59.528;17.886;2024-02-23T10:44:16;97988.28;;;5.93;98.48
70833;BME280;71099;59.528;17.886;2024-02-23T10:46:44;97985.25;;;6.04;98.79
70833;BME280;71099;59.528;17.886;2024-02-23T10:49:11;97990.50;;;6.17;97.49
70833;BME280;71099;59.528;17.886;2024-02-23T10:51:39;97999.88;;;6.10;96.44
70833;BME280;71099;59.528;17.886;2024-02-23T10:54:06;97996.78;;;6.14;96.17
70833;BME280;71099;59.528;17.886;2024-02-23T10:56:31;97993.69;;;6.19;95.46
70833;BME280;71099;59.528;17.886;2024-02-23T10:58:57;97998.81;;;6.19;94.99
70833;BME280;71099;59.528;17.886;2024-02-23T11:01:23;98007.97;;;6.28;93.54
70833;BME280;71099;59.528;17.886;2024-02-23T11:03:50;98007.84;;;6.36;92.90
70833;BME280;71099;59.528;17.886;2024-02-23T11:06:17;98029.19;;;6.43;91.82
70833;BME280;71099;59.528;17.886;2024-02-23T11:08:49;98016.88;;;6.53;91.88
70833;BME280;71099;59.528;17.886;2024-02-23T11:11:16;98016.41;;;6.43;89.36
70833;BME280;71099;59.528;17.886;2024-02-23T11:13:44;98027.88;;;6.47;90.33
70833;BME280;71099;59.528;17.886;2024-02-23T11:16:11;98021.66;;;6.56;89.68
70833;BME280;71099;59.528;17.886;2024-02-23T11:18:38;98043.56;;;6.59;88.74
70833;BME280;71099;59.528;17.886;2024-02-23T11:21:05;98026.91;;;6.69;88.68
70833;BME280;71099;59.528;17.886;2024-02-23T11:23:49;98048.25;;;6.76;87.58
70833;BME280;71099;59.528;17.886;2024-02-23T11:26:16;98046.56;;;6.83;86.87
70833;BME280;71099;59.528;17.886;2024-02-23T11:28:52;98049.13;;;6.83;84.83
70833;BME280;71099;59.528;17.886;2024-02-23T11:31:22;98057.72;;;6.76;83.33
70833;BME280;71099;59.528;17.886;2024-02-23T11:33:50;98047.28;;;6.77;83.45
70833;BME280;71099;59.528;17.886;2024-02-23T11:36:28;98052.31;;;6.85;84.00
70833;BME280;71099;59.528;17.886;2024-02-23T11:38:56;98043.38;;;6.81;81.79
70833;BME280;71099;59.528;17.886;2024-02-23T11:41:22;98059.78;;;6.87;81.89
70833;BME280;71099;59.528;17.886;2024-02-23T11:43:52;98066.94;;;6.92;81.91
70833;BME280;71099;59.528;17.886;2024-02-23T11:46:18;98066.81;;;7.00;80.86
70833;BME280;71099;59.528;17.886;2024-02-23T11:48:44;98078.09;;;7.05;80.47
70833;BME280;71099;59.528;17.886;2024-02-23T11:51:11;98078.16;;;7.12;79.96
70833;BME280;71099;59.528;17.886;2024-02-23T11:53:37;98075.78;;;7.10;81.15
70833;BME280;71099;59.528;17.886;2024-02-23T11:56:04;98072.00;;;7.06;79.93
70833;BME280;71099;59.528;17.886;2024-02-23T11:58:30;98088.41;;;7.12;79.94
70833;BME280;71099;59.528;17.886;2024-02-23T12:00:56;98100.63;;;7.10;79.36
70833;BME280;71099;59.528;17.886;2024-02-23T12:03:22;98112.91;;;7.14;80.14
70833;BME280;71099;59.528;17.886;2024-02-23T12:05:49;98134.94;;;7.09;78.65
70833;BME280;71099;59.528;17.886;2024-02-23T12:08:15;98134.94;;;7.09;79.13
70833;BME280;71099;59.528;17.886;2024-02-23T12:10:41;98146.44;;;7.13;78.41
70833;BME280;71099;59.528;17.886;2024-02-23T12:13:07;98146.25;;;7.14;79.08
70833;BME280;71099;59.528;17.886;2024-02-23T12:15:33;98156.94;;;7.18;79.13
70833;BME280;71099;59.528;17.886;2024-02-23T12:17:58;98160.22;;;7.12;77.46
70833;BME280;71099;59.528;17.886;2024-02-23T12:20:25;98163.41;;;7.14;78.11
70833;BME280;71099;59.528;17.886;2024-02-23T12:22:54;98176.50;;;7.19;77.98
70833;BME280;71099;59.528;17.886;2024-02-23T12:25:20;98178.44;;;7.17;77.96
70833;BME280;71099;59.528;17.886;2024-02-23T12:27:46;98184.66;;;7.08;77.49
70833;BME280;71099;59.528;17.886;2024-02-23T12:30:15;98179.53;;;7.08;77.57
70833;BME280;71099;59.528;17.886;2024-02-23T12:32:41;98177.56;;;7.10;77.59
70833;BME280;71099;59.528;17.886;2024-02-23T12:35:06;98181.47;;;7.06;76.48
70833;BME280;71099;59.528;17.886;2024-02-23T12:37:35;98187.22;;;7.08;77.31
70833;BME280;71099;59.528;17.886;2024-02-23T12:40:01;98190.56;;;7.08;77.22
70833;BME280;71099;59.528;17.886;2024-02-23T12:42:26;98184.47;;;7.09;76.96
70833;BME280;71099;59.528;17.886;2024-02-23T12:44:51;98183.88;;;7.07;76.15
70833;BME280;71099;59.528;17.886;2024-02-23T12:47:17;98193.06;;;7.02;76.25